Aviation Digital Data Service (ADDS)

Output produced by METARs form (0436 UTC 19 August 2019)
found at http://www.aviationweather.gov/metar/data/
 
Forecast for: WBKW (TAWAU/KALIMANTAN, MY)
Text: TAF WBKW 182300Z 1900/2000 21007KT 9999 FEW017
Forecast period: 0000 UTC 19 August 2019 to 0000 UTC 20 August 2019
Forecast type: FROM: standard forecast or significant change
Winds: from the SSW (210 degrees) at 8 MPH (7 knots; 3.6 m/s)
Visibility: 6 or more miles 10+ km)
Ceiling: at least 12,000 feet AGL
Clouds: few clouds at 1700 feet AGL
Weather: no significant weather forecast for this period